aviador You're here:

KMUI Decoded Metar

MUIR in PA, USA
Report Time2018-06-17 20:56:00
UTC Time2018-06-17 21:42:58
Flight Rules vfr VFR
Wind230° at 07 kt
W.Decomp.*RWY 25: 6.9 kt HW 1.2 kt LCW
W.Rank230° ranks 11
Current wind is above 230° avg. (6.5)
Visibility9999 m
Phenomena:N/A
Clouds:N/A
Expected CloudBase > 5,600 ft AGL from Temp-Dew spread
CeilingNone
Temp31°C (ISA +17)
Dew Point17°C (43% RH)
Heat Index31.4°C
AAT30.8°C
QNH1018 hPa
Density Alt2,520 ft
Elevation489 ft
Report Wrong Elevation
Raw Report
KMUI 172056Z AUTO 23007KT 10SM CLR 31/17 A3006 RMK AO2 SLP179
T03140169 56006 $=

Extra information for KMUI:More info

Metar Taf Metar & Taf Last 4 Metars F.Rules Stats Wind Profile Meteogram Temp Stats Airport Information Weather charts Add Link Nearby VenuesMetar ALERT Operation Metar Decoded Social comments

AIRNAV info for KMUI